Time;durP1;ratioP1;P1;durP2;ratioP2;P2;SDS_P1;SDS_P2;PMS_P1;PMS_P2;Temp;Humidity;BMP_temperature;BMP_pressure;BME280_temperature;BME280_humidity;BME280_pressure;Samples;Min_cycle;Max_cycle;Signal;HPM_P1;HPM_P2
2021/09/19 00:01:23;;;;;;;3.33;1.30;;;14.50;99.90;;;;;;6216659;23;20199;-92
2021/09/19 00:03:55;;;;;;;4.63;1.40;;;14.50;99.90;;;;;;6227253;23;20185;-92
2021/09/19 00:06:27;;;;;;;3.13;1.20;;;14.50;99.90;;;;;;6218375;23;20212;-92
2021/09/19 00:08:58;;;;;;;3.47;1.33;;;14.40;99.90;;;;;;6219160;23;20684;-93
2021/09/19 00:11:29;;;;;;;5.37;1.43;;;14.40;99.90;;;;;;6192079;23;20188;-92
2021/09/19 00:14:05;;;;;;;4.60;1.10;;;14.40;99.90;;;;;;6229317;23;20183;-92
2021/09/19 00:16:37;;;;;;;3.07;1.10;;;14.40;99.90;;;;;;6233589;23;20199;-93
2021/09/19 00:19:11;;;;;;;4.13;1.23;;;14.30;99.90;;;;;;6232935;23;20199;-92
2021/09/19 00:21:46;;;;;;;4.23;1.90;;;14.30;99.90;;;;;;6235213;23;20490;-92
2021/09/19 00:24:18;;;;;;;2.10;1.13;;;14.20;99.90;;;;;;6233927;23;20196;-92
2021/09/19 00:26:49;;;;;;;6.10;1.43;;;14.10;99.90;;;;;;6232896;23;20208;-91
2021/09/19 00:29:23;;;;;;;3.03;1.00;;;14.10;99.90;;;;;;6199749;23;20164;-92
2021/09/19 00:31:54;;;;;;;3.17;1.30;;;14.00;99.90;;;;;;6219896;23;20243;-92
2021/09/19 00:34:26;;;;;;;3.60;1.30;;;14.10;99.90;;;;;;6218137;23;20501;-92
2021/09/19 00:36:58;;;;;;;2.07;1.20;;;14.00;99.90;;;;;;6218602;23;20176;-93
2021/09/19 00:39:29;;;;;;;2.63;1.30;;;13.90;99.90;;;;;;6218369;23;20183;-93
2021/09/19 00:42:00;;;;;;;5.03;2.27;;;13.90;99.90;;;;;;6225332;23;20176;-93
2021/09/19 00:44:36;;;;;;;2.90;1.13;;;13.90;99.90;;;;;;6235938;23;20232;-92
2021/09/19 00:47:09;;;;;;;2.70;1.13;;;13.80;99.90;;;;;;6235165;23;20222;-92
2021/09/19 00:49:40;;;;;;;2.33;1.20;;;13.80;99.90;;;;;;6221102;23;20231;-92
2021/09/19 00:52:12;;;;;;;3.30;1.50;;;13.70;99.90;;;;;;6222096;23;20203;-92
2021/09/19 00:54:46;;;;;;;2.40;1.50;;;13.80;99.90;;;;;;6196993;23;20200;-92
2021/09/19 00:57:19;;;;;;;4.57;1.53;;;13.80;99.90;;;;;;6221551;23;20187;-92
2021/09/19 00:59:53;;;;;;;3.77;1.40;;;13.70;99.90;;;;;;6220528;23;20175;-92
2021/09/19 01:02:25;;;;;;;2.93;1.40;;;13.70;99.90;;;;;;6218659;23;20189;-92
2021/09/19 01:04:57;;;;;;;3.17;1.20;;;13.70;99.90;;;;;;6221440;23;20177;-92
2021/09/19 01:07:29;;;;;;;2.07;1.37;;;13.70;99.90;;;;;;6218337;23;20534;-93
2021/09/19 01:10:01;;;;;;;4.03;1.33;;;13.50;99.90;;;;;;6218013;23;20181;-92
2021/09/19 01:12:32;;;;;;;3.83;1.50;;;13.60;99.90;;;;;;6218139;23;20219;-92
2021/09/19 01:15:06;;;;;;;2.93;1.20;;;13.60;99.90;;;;;;6218370;23;20227;-92
2021/09/19 01:17:40;;;;;;;3.37;1.30;;;13.60;99.90;;;;;;6217999;23;20191;-93
2021/09/19 01:20:15;;;;;;;3.53;1.17;;;13.60;99.90;;;;;;6218066;23;20195;-93
2021/09/19 01:22:58;;;;;;;2.70;1.10;;;13.50;99.90;;;;;;6191900;23;20514;-93
2021/09/19 01:25:31;;;;;;;3.63;1.20;;;13.50;99.90;;;;;;6217595;23;20192;-93
2021/09/19 01:28:03;;;;;;;3.27;1.50;;;13.30;99.90;;;;;;6218217;23;20172;-93
2021/09/19 01:30:35;;;;;;;2.27;1.20;;;13.40;99.90;;;;;;6219091;23;20232;-94
2021/09/19 01:33:07;;;;;;;3.20;1.10;;;13.50;99.90;;;;;;6218423;23;20524;-93
2021/09/19 01:35:38;;;;;;;2.30;1.47;;;13.40;99.90;;;;;;6226234;23;20211;-93
2021/09/19 01:38:09;;;;;;;2.83;1.37;;;13.50;99.90;;;;;;6226786;23;20168;-89
2021/09/19 01:40:48;;;;;;;2.90;1.07;;;13.40;99.90;;;;;;6210383;23;20222;-96
2021/09/19 01:43:19;;;;;;;2.27;1.10;;;13.40;99.90;;;;;;6211355;23;20167;-96
2021/09/19 01:53:57;;;;;;;2.80;1.33;;;13.30;99.90;;;;;;6228376;23;20208;-96
2021/09/19 01:59:23;;;;;;;1.87;1.27;;;13.30;99.90;;;;;;6241703;23;20192;-94
2021/09/19 02:01:56;;;;;;;3.27;1.30;;;13.30;99.90;;;;;;6241713;23;20175;-96
2021/09/19 02:04:31;;;;;;;2.77;1.30;;;13.40;99.90;;;;;;6240375;23;20176;-96
2021/09/19 02:07:05;;;;;;;3.87;1.40;;;13.40;99.90;;;;;;6213183;23;20204;-96
2021/09/19 02:09:39;;;;;;;1.97;1.20;;;13.30;99.90;;;;;;6239513;23;20180;-96
2021/09/19 02:12:15;;;;;;;4.23;1.10;;;13.30;99.90;;;;;;6236286;23;20184;-96
2021/09/19 02:14:54;;;;;;;1.83;1.10;;;13.40;99.90;;;;;;6243006;23;20187;-96
2021/09/19 02:20:34;;;;;;;3.80;1.23;;;13.30;99.90;;;;;;6241918;23;20164;-96
2021/09/19 02:23:08;;;;;;;1.70;1.03;;;13.30;99.90;;;;;;6244037;23;20168;-96
2021/09/19 02:25:40;;;;;;;1.43;1.23;;;13.20;99.90;;;;;;6244177;23;20161;-96
2021/09/19 02:28:12;;;;;;;1.63;1.30;;;13.20;99.90;;;;;;6244472;23;20184;-96
2021/09/19 02:30:47;;;;;;;1.40;1.10;;;13.10;99.90;;;;;;6244059;23;20169;-96
2021/09/19 02:36:09;;;;;;;2.90;1.47;;;12.90;99.90;;;;;;6224028;23;20273;-96
2021/09/19 02:38:41;;;;;;;2.50;1.30;;;12.90;99.90;;;;;;6240904;23;20219;-95
2021/09/19 02:41:16;;;;;;;2.60;1.37;;;12.90;99.90;;;;;;6239208;23;20160;-96
2021/09/19 02:43:48;;;;;;;1.93;1.63;;;12.90;99.90;;;;;;6214515;23;20282;-96
2021/09/19 03:02:45;;;;;;;2.80;1.43;;;12.50;99.90;;;;;;6237246;23;20203;-96
2021/09/19 03:05:21;;;;;;;5.00;1.53;;;12.40;99.90;;;;;;6241246;23;20172;-96
2021/09/19 03:07:56;;;;;;;3.27;1.57;;;12.40;99.90;;;;;;6237573;23;20238;-96
2021/09/19 03:10:28;;;;;;;2.10;1.40;;;12.40;99.90;;;;;;6236604;23;20252;-96
2021/09/19 03:13:01;;;;;;;3.43;1.50;;;12.30;99.90;;;;;;6240690;23;20156;-96
2021/09/19 03:15:37;;;;;;;3.13;1.63;;;12.30;99.90;;;;;;6239642;23;20172;-96
2021/09/19 03:18:09;;;;;;;2.73;1.40;;;12.30;99.90;;;;;;6240749;23;20176;-96
2021/09/19 03:31:25;;;;;;;3.83;1.70;;;12.20;99.90;;;;;;6205664;23;20258;-96
2021/09/19 03:33:59;;;;;;;3.23;1.70;;;12.10;99.90;;;;;;6242581;23;20215;-96
2021/09/19 03:37:06;;;;;;;2.27;1.53;;;12.10;99.90;;;;;;6242668;23;20168;-96
2021/09/19 03:39:38;;;;;;;3.77;1.47;;;12.10;99.90;;;;;;6243246;23;20163;-96
2021/09/19 03:42:13;;;;;;;6.83;1.63;;;12.10;99.90;;;;;;6243328;23;20157;-96
2021/09/19 03:44:47;;;;;;;3.77;1.80;;;12.10;99.90;;;;;;6219974;23;20156;-96
2021/09/19 03:47:23;;;;;;;3.13;1.90;;;12.00;99.90;;;;;;6243555;23;20204;-96
2021/09/19 03:52:57;;;;;;;2.23;1.30;;;12.00;99.90;;;;;;6235216;23;20164;-96
2021/09/19 03:55:30;;;;;;;4.80;1.63;;;12.00;99.90;;;;;;6211798;23;20172;-96
2021/09/19 03:58:12;;;;;;;1.93;1.70;;;12.00;99.90;;;;;;6238178;23;20184;-96
2021/09/19 04:00:44;;;;;;;4.40;1.80;;;12.00;99.90;;;;;;6241901;23;20176;-96
2021/09/19 04:03:19;;;;;;;3.43;2.10;;;12.00;99.90;;;;;;6215564;23;20228;-96
2021/09/19 04:05:54;;;;;;;4.07;1.50;;;12.00;99.90;;;;;;6239155;23;20247;-96
2021/09/19 04:22:05;;;;;;;2.27;1.40;;;12.10;99.90;;;;;;6180953;23;20196;-96
2021/09/19 04:30:04;;;;;;;2.77;1.53;;;12.30;99.90;;;;;;6220532;23;20215;-96
2021/09/19 04:32:39;;;;;;;2.63;1.53;;;12.20;99.90;;;;;;6240507;23;20184;-97
2021/09/19 04:56:44;;;;;;;8.53;3.07;;;12.20;99.90;;;;;;6213722;23;20211;-96
2021/09/19 04:59:17;;;;;;;8.20;2.80;;;12.20;99.90;;;;;;6201007;23;20173;-96
2021/09/19 05:01:49;;;;;;;5.63;1.93;;;12.20;99.90;;;;;;6203805;23;20173;-96
2021/09/19 05:04:23;;;;;;;7.10;2.20;;;12.10;99.90;;;;;;6205007;23;20165;-96
2021/09/19 05:06:55;;;;;;;3.97;1.83;;;12.10;99.90;;;;;;6204881;23;20169;-96
2021/09/19 05:09:26;;;;;;;4.13;1.80;;;12.10;99.90;;;;;;6201695;23;20177;-96
2021/09/19 05:12:05;;;;;;;6.33;2.03;;;12.20;99.90;;;;;;6198889;23;20192;-96
2021/09/19 05:14:37;;;;;;;6.47;2.00;;;12.20;99.90;;;;;;6176880;23;20172;-96
2021/09/19 05:17:09;;;;;;;4.20;2.37;;;12.20;99.90;;;;;;6203610;23;20203;-96
2021/09/19 05:19:41;;;;;;;6.43;2.50;;;12.20;99.90;;;;;;6192814;23;20216;-96
2021/09/19 05:22:12;;;;;;;5.33;2.40;;;12.10;99.90;;;;;;6189777;23;20247;-95
2021/09/19 05:24:43;;;;;;;5.57;2.63;;;12.20;99.90;;;;;;6196753;23;20181;-95
2021/09/19 05:27:17;;;;;;;4.13;2.13;;;12.20;99.90;;;;;;6200710;23;20209;-96
2021/09/19 05:29:49;;;;;;;4.27;1.70;;;12.10;99.90;;;;;;6202005;23;20184;-96
2021/09/19 05:32:21;;;;;;;6.00;1.67;;;12.10;99.90;;;;;;6203162;23;20181;-96
2021/09/19 05:34:53;;;;;;;2.20;1.43;;;12.10;99.90;;;;;;6193539;23;20197;-96
2021/09/19 05:37:25;;;;;;;3.20;1.27;;;12.00;99.90;;;;;;6196011;23;20200;-96
2021/09/19 05:39:56;;;;;;;4.20;1.77;;;12.00;99.90;;;;;;6196708;23;20177;-96
2021/09/19 05:42:30;;;;;;;3.60;1.63;;;12.00;99.90;;;;;;6193894;23;20189;-96
2021/09/19 05:45:02;;;;;;;1.70;1.13;;;12.00;99.90;;;;;;6191611;23;20175;-96
2021/09/19 05:47:35;;;;;;;3.47;1.20;;;11.90;99.90;;;;;;6196554;23;20272;-96
2021/09/19 05:50:09;;;;;;;2.07;1.30;;;11.90;99.90;;;;;;6197459;23;20168;-96
2021/09/19 05:52:41;;;;;;;3.57;1.27;;;11.80;99.90;;;;;;6198981;23;20177;-96
2021/09/19 05:55:14;;;;;;;2.63;1.20;;;11.80;99.90;;;;;;6203843;23;20188;-96
2021/09/19 05:57:48;;;;;;;2.43;1.00;;;11.80;99.90;;;;;;6209558;23;20502;-96
2021/09/19 06:00:20;;;;;;;4.17;1.60;;;11.70;99.90;;;;;;6205969;23;20181;-96
2021/09/19 06:02:51;;;;;;;2.47;1.30;;;11.70;99.90;;;;;;6231467;23;20176;-96
2021/09/19 06:05:23;;;;;;;2.93;1.53;;;11.70;99.90;;;;;;6201611;23;20176;-94
2021/09/19 06:07:55;;;;;;;3.43;1.53;;;11.70;99.90;;;;;;6229254;23;20295;-95
2021/09/19 06:10:27;;;;;;;3.63;1.30;;;11.70;99.90;;;;;;6227004;23;20516;-95
2021/09/19 06:13:00;;;;;;;1.83;1.63;;;11.70;99.90;;;;;;6224446;23;20240;-96
2021/09/19 06:15:32;;;;;;;1.87;1.53;;;11.70;99.90;;;;;;6223429;23;20235;-95
2021/09/19 06:18:04;;;;;;;4.53;1.80;;;11.70;99.90;;;;;;6203740;23;20211;-96
2021/09/19 06:20:35;;;;;;;6.43;2.40;;;11.70;99.90;;;;;;6203694;23;20171;-96
2021/09/19 06:23:07;;;;;;;2.97;1.77;;;11.70;99.90;;;;;;6244221;23;20161;-96
2021/09/19 06:25:38;;;;;;;3.83;2.17;;;11.70;99.90;;;;;;6218244;23;20240;-96
2021/09/19 06:28:12;;;;;;;6.60;3.40;;;11.80;99.90;;;;;;6205420;23;20211;-95
2021/09/19 06:30:44;;;;;;;6.10;3.30;;;11.70;99.90;;;;;;6220730;23;20176;-95
2021/09/19 06:33:15;;;;;;;3.90;3.10;;;11.70;99.90;;;;;;6195923;23;20179;-96
2021/09/19 06:35:49;;;;;;;6.00;3.43;;;11.80;99.90;;;;;;6220823;23;20487;-95
2021/09/19 06:38:20;;;;;;;6.33;2.07;;;11.80;99.90;;;;;;6201971;23;20223;-95
2021/09/19 06:40:52;;;;;;;4.93;2.73;;;11.70;99.90;;;;;;6220748;23;20654;-96
2021/09/19 06:46:18;;;;;;;3.33;2.17;;;11.70;99.90;;;;;;6223932;23;20203;-96
2021/09/19 06:48:49;;;;;;;3.60;1.93;;;11.70;99.90;;;;;;6222680;23;20211;-95
2021/09/19 06:51:21;;;;;;;3.33;1.47;;;11.70;99.90;;;;;;6224527;23;20184;-96
2021/09/19 06:53:52;;;;;;;2.07;1.30;;;11.60;99.90;;;;;;6231450;23;20505;-96
2021/09/19 06:56:25;;;;;;;2.93;1.37;;;11.60;99.90;;;;;;6194413;23;20193;-96
2021/09/19 06:58:58;;;;;;;4.00;1.60;;;11.60;99.90;;;;;;6194910;23;20177;-94
2021/09/19 07:01:30;;;;;;;2.80;1.57;;;11.60;99.90;;;;;;6200546;23;20181;-93
2021/09/19 07:04:02;;;;;;;2.80;1.37;;;11.50;99.90;;;;;;6200469;23;20184;-95
2021/09/19 07:06:35;;;;;;;3.33;1.30;;;11.60;99.90;;;;;;6204324;23;20580;-94
2021/09/19 07:09:09;;;;;;;2.90;1.30;;;11.50;99.90;;;;;;6199000;23;20215;-95
2021/09/19 07:11:45;;;;;;;2.73;1.40;;;11.50;99.90;;;;;;6201636;23;20176;-93
2021/09/19 07:14:23;;;;;;;4.73;1.40;;;11.50;99.90;;;;;;6199968;23;20180;-96
2021/09/19 07:16:56;;;;;;;1.77;1.20;;;11.40;99.90;;;;;;6204441;23;20176;-95
2021/09/19 07:19:27;;;;;;;2.70;1.50;;;11.40;99.90;;;;;;6203926;23;20185;-95
2021/09/19 07:21:59;;;;;;;1.53;1.13;;;11.40;99.90;;;;;;6208677;23;20670;-96
2021/09/19 07:24:31;;;;;;;2.00;1.30;;;11.30;99.90;;;;;;6206926;23;20181;-96
2021/09/19 07:27:04;;;;;;;2.47;1.50;;;11.40;99.90;;;;;;6192251;23;20181;-95
2021/09/19 07:29:38;;;;;;;1.57;1.03;;;11.40;99.90;;;;;;6192399;23;20276;-96
2021/09/19 07:32:12;;;;;;;2.93;1.30;;;11.40;99.90;;;;;;6195407;23;20180;-96
2021/09/19 07:34:43;;;;;;;1.53;1.20;;;11.40;99.90;;;;;;6195946;23;20184;-96
2021/09/19 07:37:19;;;;;;;2.27;0.90;;;11.30;99.90;;;;;;6197685;23;20619;-96
2021/09/19 07:39:51;;;;;;;2.57;1.10;;;11.30;99.90;;;;;;6171848;23;20180;-93
2021/09/19 07:42:23;;;;;;;2.50;0.97;;;11.30;99.90;;;;;;6192802;23;20623;-96
2021/09/19 07:44:56;;;;;;;3.50;0.93;;;11.30;99.90;;;;;;6194026;23;20177;-96
2021/09/19 07:47:30;;;;;;;1.20;1.00;;;11.30;99.90;;;;;;6192384;23;20247;-96
2021/09/19 07:50:02;;;;;;;1.23;0.87;;;11.30;99.90;;;;;;6196975;23;20201;-96
2021/09/19 07:52:34;;;;;;;2.00;0.90;;;11.30;99.90;;;;;;6206311;23;20200;-96
2021/09/19 07:55:06;;;;;;;1.80;0.90;;;11.20;99.90;;;;;;6211372;23;20217;-96
2021/09/19 07:57:38;;;;;;;2.10;1.13;;;11.20;99.90;;;;;;6234378;23;20211;-96
2021/09/19 08:00:14;;;;;;;1.27;1.00;;;11.20;99.90;;;;;;6237223;23;20248;-96
2021/09/19 08:02:46;;;;;;;2.23;0.90;;;11.10;99.90;;;;;;6238498;23;20212;-96
2021/09/19 08:05:19;;;;;;;3.80;1.03;;;11.20;99.90;;;;;;6212135;23;20171;-96
2021/09/19 08:07:52;;;;;;;1.30;0.90;;;11.20;99.90;;;;;;6211380;23;20184;-96
2021/09/19 08:10:24;;;;;;;1.87;0.90;;;11.20;99.90;;;;;;6240919;23;20207;-96
2021/09/19 08:12:55;;;;;;;2.43;1.10;;;11.20;99.90;;;;;;6238181;23;20223;-96
2021/09/19 08:15:31;;;;;;;1.13;0.80;;;11.20;99.90;;;;;;6237789;23;20164;-96
2021/09/19 08:18:03;;;;;;;4.33;1.17;;;11.30;99.90;;;;;;6236200;23;20516;-96
2021/09/19 08:20:35;;;;;;;2.07;1.03;;;11.30;99.90;;;;;;6228094;23;20217;-96
2021/09/19 08:23:08;;;;;;;2.83;1.10;;;11.30;99.90;;;;;;6171131;23;20628;-96
2021/09/19 08:25:40;;;;;;;3.43;0.93;;;11.30;99.90;;;;;;6199200;23;20176;-96
2021/09/19 08:28:11;;;;;;;1.37;0.90;;;11.30;99.90;;;;;;6228251;23;20266;-96
2021/09/19 08:30:46;;;;;;;1.30;0.73;;;11.30;99.90;;;;;;6200570;23;20224;-96
2021/09/19 08:33:17;;;;;;;1.53;0.80;;;11.30;99.90;;;;;;6233600;23;20156;-96
2021/09/19 08:35:49;;;;;;;3.13;0.80;;;11.40;99.90;;;;;;6241747;23;20198;-96
2021/09/19 08:38:19;;;;;;;3.17;0.60;;;11.40;99.90;;;;;;6240504;23;20188;-96
2021/09/19 08:40:52;;;;;;;0.73;0.57;;;11.50;99.90;;;;;;6223519;23;20724;-96
2021/09/19 08:43:25;;;;;;;0.60;0.60;;;11.50;99.90;;;;;;6221867;23;20176;-96
2021/09/19 08:45:59;;;;;;;0.77;0.73;;;11.50;99.90;;;;;;6198714;23;20173;-96
2021/09/19 08:48:32;;;;;;;1.33;0.70;;;11.50;99.90;;;;;;6196032;23;20172;-96
2021/09/19 08:51:03;;;;;;;0.63;0.60;;;11.40;99.90;;;;;;6226879;23;20200;-96
2021/09/19 08:53:35;;;;;;;1.90;0.80;;;11.50;99.90;;;;;;6235849;23;20187;-96
2021/09/19 08:56:08;;;;;;;0.53;0.50;;;11.50;99.90;;;;;;6219522;23;20220;-96
2021/09/19 08:58:40;;;;;;;1.03;0.70;;;11.50;99.90;;;;;;6206679;23;20173;-96
2021/09/19 09:01:18;;;;;;;1.40;0.70;;;11.50;99.90;;;;;;6206222;23;20208;-96
2021/09/19 09:03:52;;;;;;;4.30;0.90;;;11.50;99.90;;;;;;6205240;23;20376;-96
2021/09/19 09:06:26;;;;;;;2.40;0.70;;;11.50;99.90;;;;;;6204276;23;20177;-96
2021/09/19 09:08:59;;;;;;;1.00;0.80;;;11.40;99.90;;;;;;6204817;23;20176;-96
2021/09/19 09:11:31;;;;;;;2.43;0.80;;;11.50;99.90;;;;;;6211851;23;20177;-96
2021/09/19 09:14:05;;;;;;;1.37;0.70;;;11.40;99.90;;;;;;6212590;23;20157;-96
2021/09/19 09:27:25;;;;;;;1.23;0.70;;;11.30;99.90;;;;;;6239652;23;20248;-96
2021/09/19 09:30:18;;;;;;;0.60;0.60;;;11.40;99.90;;;;;;6233084;23;20207;-96
2021/09/19 09:32:54;;;;;;;1.97;0.70;;;11.40;99.90;;;;;;6232707;23;20226;-96
2021/09/19 09:35:35;;;;;;;1.30;0.80;;;11.40;99.90;;;;;;6235051;23;20187;-96
2021/09/19 09:38:21;;;;;;;1.13;0.73;;;11.40;99.90;;;;;;6238488;23;20444;-96
2021/09/19 09:41:02;;;;;;;1.87;0.60;;;11.40;99.90;;;;;;6237153;23;20180;-96
2021/09/19 09:43:38;;;;;;;2.13;0.60;;;11.50;99.90;;;;;;6237570;23;20176;-96
2021/09/19 09:46:13;;;;;;;1.30;0.97;;;11.60;99.90;;;;;;6188424;23;20206;-96
2021/09/19 09:48:46;;;;;;;0.73;0.73;;;11.70;99.90;;;;;;6207344;23;20176;-96
2021/09/19 09:51:24;;;;;;;1.67;0.60;;;11.60;99.90;;;;;;6233881;23;20204;-96
2021/09/19 09:54:01;;;;;;;2.03;0.60;;;11.50;99.90;;;;;;6231439;23;20169;-96
2021/09/19 09:56:35;;;;;;;0.93;0.70;;;11.60;99.90;;;;;;6228229;23;20242;-95
2021/09/19 09:59:10;;;;;;;1.30;0.80;;;11.60;99.90;;;;;;6230003;23;20176;-96
2021/09/19 10:01:42;;;;;;;2.17;0.87;;;11.60;99.90;;;;;;6228325;23;20179;-95
2021/09/19 10:04:15;;;;;;;2.93;0.80;;;11.40;99.90;;;;;;6227777;23;20517;-95
2021/09/19 10:06:51;;;;;;;1.60;0.87;;;11.50;99.90;;;;;;6227475;23;20176;-95
2021/09/19 10:09:26;;;;;;;0.87;0.67;;;11.50;99.90;;;;;;6223681;23;20224;-95
2021/09/19 10:11:59;;;;;;;2.17;1.00;;;11.50;99.90;;;;;;6223798;23;20176;-96
2021/09/19 10:14:33;;;;;;;2.40;0.70;;;11.60;99.90;;;;;;6227041;23;20183;-96
2021/09/19 10:17:05;;;;;;;3.97;0.80;;;11.50;99.90;;;;;;6228170;23;20195;-96
2021/09/19 10:19:37;;;;;;;1.57;0.83;;;11.50;99.90;;;;;;6228408;23;20165;-96
2021/09/19 10:22:10;;;;;;;2.03;0.93;;;11.50;99.90;;;;;;6224167;23;20180;-96
2021/09/19 10:24:42;;;;;;;0.80;0.80;;;11.60;99.90;;;;;;6222109;23;20203;-95
2021/09/19 10:27:22;;;;;;;1.07;0.60;;;11.60;99.90;;;;;;6222689;23;20207;-96
2021/09/19 10:30:01;;;;;;;0.73;0.73;;;11.50;99.90;;;;;;6221749;23;20196;-96
2021/09/19 10:32:38;;;;;;;2.63;1.30;;;11.50;99.90;;;;;;6197614;23;20638;-96
2021/09/19 10:35:31;;;;;;;1.20;0.63;;;11.50;99.90;;;;;;6226047;23;20176;-96
2021/09/19 10:38:04;;;;;;;2.00;0.80;;;11.60;99.90;;;;;;6226323;23;20176;-95
2021/09/19 10:40:39;;;;;;;0.90;0.80;;;11.60;99.90;;;;;;6226394;23;20172;-96
2021/09/19 10:43:11;;;;;;;1.60;0.97;;;11.70;99.90;;;;;;6229334;23;20196;-96
2021/09/19 10:45:46;;;;;;;0.90;0.80;;;11.70;99.90;;;;;;6242865;23;20161;-96
2021/09/19 10:48:21;;;;;;;3.33;0.93;;;11.70;99.90;;;;;;6243129;23;20161;-96
2021/09/19 10:51:03;;;;;;;1.10;1.00;;;11.70;99.90;;;;;;6241341;23;20669;-96
2021/09/19 10:53:51;;;;;;;1.20;0.90;;;11.70;99.90;;;;;;6243056;23;20169;-95
2021/09/19 10:56:25;;;;;;;1.00;0.90;;;11.80;99.90;;;;;;6243485;23;20187;-96
2021/09/19 10:58:58;;;;;;;1.47;1.00;;;11.70;99.90;;;;;;6241824;23;20176;-96
2021/09/19 11:01:37;;;;;;;2.13;0.97;;;11.80;99.90;;;;;;6232948;23;20176;-96
2021/09/19 11:04:15;;;;;;;1.93;0.90;;;11.70;99.90;;;;;;6237486;23;20188;-96
2021/09/19 11:06:48;;;;;;;2.63;0.83;;;11.70;99.90;;;;;;6232705;23;20184;-96
2021/09/19 11:09:25;;;;;;;2.27;0.90;;;11.70;99.90;;;;;;6206007;23;20234;-96
2021/09/19 11:12:10;;;;;;;2.93;0.90;;;11.70;99.90;;;;;;6231289;23;20255;-96
2021/09/19 11:15:03;;;;;;;2.07;0.70;;;11.70;99.90;;;;;;6232293;23;20176;-96
2021/09/19 11:17:48;;;;;;;1.27;0.70;;;11.80;99.90;;;;;;6233018;23;20177;-96
2021/09/19 11:20:25;;;;;;;2.53;0.80;;;11.80;99.90;;;;;;6234618;23;20168;-95
2021/09/19 11:23:12;;;;;;;0.43;0.43;;;11.80;99.90;;;;;;6209805;23;20168;-96
2021/09/19 11:25:45;;;;;;;2.87;0.73;;;11.80;99.90;;;;;;6204737;23;20215;-96
2021/09/19 11:28:20;;;;;;;0.60;0.53;;;11.70;99.90;;;;;;6208108;23;20173;-96
2021/09/19 11:30:59;;;;;;;1.73;0.60;;;11.70;99.90;;;;;;6203464;23;20211;-96
2021/09/19 11:33:35;;;;;;;1.07;0.70;;;11.70;99.90;;;;;;6203568;23;20252;-94
2021/09/19 11:36:10;;;;;;;2.20;0.63;;;11.70;99.90;;;;;;6181135;23;20169;-96
2021/09/19 11:38:45;;;;;;;1.13;0.70;;;11.80;99.90;;;;;;6206961;23;20181;-96
2021/09/19 11:41:19;;;;;;;1.03;0.70;;;11.80;99.90;;;;;;6206281;23;20223;-96
2021/09/19 11:43:54;;;;;;;0.80;0.53;;;11.80;99.90;;;;;;6205290;23;20169;-96
2021/09/19 11:46:28;;;;;;;2.57;0.80;;;11.90;99.90;;;;;;6207009;23;20243;-96
2021/09/19 11:49:06;;;;;;;3.77;1.03;;;11.90;99.90;;;;;;6206777;23;20177;-96
2021/09/19 11:51:40;;;;;;;0.87;0.70;;;11.80;99.90;;;;;;6200964;23;20204;-96
2021/09/19 11:54:15;;;;;;;2.90;0.77;;;11.80;99.90;;;;;;6210279;23;20211;-96
2021/09/19 11:56:49;;;;;;;1.80;0.60;;;11.90;99.90;;;;;;6211735;23;20156;-96
2021/09/19 11:59:23;;;;;;;0.60;0.60;;;11.90;99.90;;;;;;6210575;23;20177;-96
2021/09/19 12:01:57;;;;;;;2.87;0.50;;;11.90;99.90;;;;;;6208939;23;20177;-96
2021/09/19 12:04:34;;;;;;;0.50;0.50;;;12.00;99.90;;;;;;6210772;23;20165;-96
2021/09/19 12:21:02;;;;;;;2.23;0.80;;;12.00;99.90;;;;;;6207214;23;20253;-96
2021/09/19 12:23:45;;;;;;;0.83;0.50;;;12.10;99.90;;;;;;6203075;23;20200;-96
2021/09/19 12:26:20;;;;;;;0.83;0.60;;;12.00;99.90;;;;;;6202164;23;20177;-96
2021/09/19 12:28:58;;;;;;;2.10;0.70;;;12.00;99.90;;;;;;6201798;23;20191;-96
2021/09/19 12:31:39;;;;;;;0.73;0.70;;;12.00;99.90;;;;;;6202568;23;20235;-96
2021/09/19 12:34:14;;;;;;;1.73;0.77;;;12.00;99.90;;;;;;6202562;23;20188;-96
2021/09/19 12:36:50;;;;;;;3.70;0.80;;;12.10;99.90;;;;;;6178827;23;20177;-96
2021/09/19 12:39:24;;;;;;;2.73;0.60;;;12.10;99.90;;;;;;6202375;23;20181;-96
2021/09/19 12:42:01;;;;;;;1.60;0.70;;;12.10;99.90;;;;;;6153742;23;20175;-96
2021/09/19 12:44:34;;;;;;;1.67;0.70;;;12.10;99.90;;;;;;6203064;23;20276;-96
2021/09/19 12:47:10;;;;;;;1.10;0.63;;;12.20;99.90;;;;;;6203791;23;20233;-96
2021/09/19 12:49:47;;;;;;;0.70;0.70;;;12.20;99.90;;;;;;6169994;23;20180;-96
2021/09/19 12:52:21;;;;;;;2.87;0.70;;;12.20;99.90;;;;;;6207284;23;20197;-96
2021/09/19 12:54:54;;;;;;;0.77;0.60;;;12.20;99.90;;;;;;6185485;23;20253;-96
2021/09/19 12:57:28;;;;;;;1.00;0.70;;;12.20;99.90;;;;;;6211369;23;20181;-96
2021/09/19 13:00:00;;;;;;;1.90;0.80;;;12.20;99.90;;;;;;6186233;23;20192;-96
2021/09/19 13:02:32;;;;;;;0.87;0.80;;;12.20;99.90;;;;;;6176337;23;20568;-96
2021/09/19 13:05:05;;;;;;;1.17;0.90;;;12.20;99.90;;;;;;6199208;23;20188;-96
2021/09/19 13:07:39;;;;;;;1.33;0.90;;;12.20;99.90;;;;;;6175763;23;20211;-96
2021/09/19 13:10:11;;;;;;;3.27;1.00;;;12.10;99.90;;;;;;6203071;23;20172;-96
2021/09/19 13:12:44;;;;;;;2.30;1.00;;;12.30;99.90;;;;;;6208408;23;20227;-96
2021/09/19 13:15:34;;;;;;;1.80;1.00;;;12.10;99.90;;;;;;6230140;23;20224;-96
2021/09/19 13:18:07;;;;;;;1.70;1.00;;;12.10;99.90;;;;;;6235994;23;20183;-96
2021/09/19 13:20:39;;;;;;;2.30;1.53;;;12.20;99.90;;;;;;6235439;23;20203;-96
2021/09/19 13:23:15;;;;;;;5.80;1.27;;;12.10;99.90;;;;;;6231950;23;20203;-96
2021/09/19 13:25:47;;;;;;;1.33;0.90;;;12.10;99.90;;;;;;6231346;23;20179;-96
2021/09/19 13:28:21;;;;;;;3.40;1.00;;;12.00;99.90;;;;;;6232368;23;20183;-96
2021/09/19 13:30:53;;;;;;;2.23;1.10;;;12.10;99.90;;;;;;6234910;23;20195;-94
2021/09/19 13:33:25;;;;;;;2.33;1.17;;;12.00;99.90;;;;;;6236063;23;20184;-96
2021/09/19 13:36:00;;;;;;;2.63;1.20;;;12.10;99.90;;;;;;6234105;23;20183;-96
2021/09/19 13:38:36;;;;;;;2.23;1.00;;;12.10;99.90;;;;;;6235560;23;20169;-96
2021/09/19 13:41:09;;;;;;;1.60;1.07;;;12.10;99.90;;;;;;6209599;23;20631;-96
2021/09/19 13:43:41;;;;;;;1.20;0.90;;;12.10;99.90;;;;;;6209083;23;20175;-96
2021/09/19 13:46:13;;;;;;;0.93;0.93;;;12.10;99.90;;;;;;6237356;23;20180;-96
2021/09/19 13:48:46;;;;;;;3.23;0.97;;;12.10;99.90;;;;;;6242125;23;20163;-96
2021/09/19 14:29:12;;;;;;;1.60;1.17;;;12.00;99.90;;;;;;6210986;22;20225;-96
2021/09/19 14:31:45;;;;;;;3.07;1.30;;;12.00;99.90;;;;;;6232798;23;20242;-96
2021/09/19 14:34:20;;;;;;;1.80;1.20;;;12.10;99.90;;;;;;6232906;23;20173;-96
2021/09/19 14:36:53;;;;;;;1.23;1.13;;;12.10;99.90;;;;;;6233624;23;20195;-96
2021/09/19 14:39:25;;;;;;;3.93;2.17;;;12.10;99.90;;;;;;6232193;23;21084;-96
2021/09/19 14:41:58;;;;;;;2.27;1.17;;;12.10;99.90;;;;;;6233022;23;20176;-96
2021/09/19 14:44:32;;;;;;;2.10;1.23;;;12.10;99.90;;;;;;6212993;23;20176;-96
2021/09/19 14:47:07;;;;;;;3.83;1.30;;;12.10;99.90;;;;;;6240348;23;20156;-96
2021/09/19 14:52:29;;;;;;;3.03;1.30;;;12.10;99.90;;;;;;6205502;23;20215;-96
2021/09/19 14:55:02;;;;;;;1.43;1.30;;;12.10;99.90;;;;;;6208618;23;20228;-96
2021/09/19 14:57:34;;;;;;;3.63;1.50;;;12.20;99.90;;;;;;6214144;23;20169;-96
2021/09/19 15:00:20;;;;;;;4.33;2.10;;;12.10;99.90;;;;;;6213432;23;20208;-96
2021/09/19 15:10:56;;;;;;;4.37;1.70;;;12.30;99.90;;;;;;6202648;22;20176;-92
2021/09/19 15:16:21;;;;;;;3.37;1.30;;;12.30;99.90;;;;;;6196881;23;20176;-95
2021/09/19 15:18:53;;;;;;;3.90;1.40;;;12.30;99.90;;;;;;6167778;23;20242;-95
2021/09/19 15:21:24;;;;;;;2.10;1.37;;;12.30;99.90;;;;;;6192155;23;20573;-96
2021/09/19 15:23:56;;;;;;;2.53;1.40;;;12.30;99.90;;;;;;6192728;23;20239;-96
2021/09/19 15:26:27;;;;;;;2.17;1.30;;;12.30;99.90;;;;;;6191489;23;20165;-96
2021/09/19 15:29:06;;;;;;;1.97;1.40;;;12.40;99.90;;;;;;6166265;23;20176;-96
2021/09/19 15:31:40;;;;;;;2.43;1.33;;;12.40;99.90;;;;;;6176681;23;20256;-96
2021/09/19 15:34:12;;;;;;;5.37;1.70;;;12.50;99.90;;;;;;6201114;23;20196;-96
2021/09/19 15:36:44;;;;;;;3.37;1.53;;;12.60;99.90;;;;;;6176653;23;20177;-96
2021/09/19 15:39:16;;;;;;;4.07;1.77;;;12.60;99.90;;;;;;6202675;23;20216;-96
2021/09/19 15:41:58;;;;;;;2.13;1.53;;;12.50;99.90;;;;;;6206941;23;20173;-96
2021/09/19 15:44:30;;;;;;;2.73;1.70;;;12.60;99.90;;;;;;6204919;23;20184;-96
2021/09/19 15:47:04;;;;;;;3.10;1.43;;;12.60;99.90;;;;;;6204479;23;20183;-96
2021/09/19 15:49:36;;;;;;;4.13;1.63;;;12.50;99.90;;;;;;6198162;23;20529;-96
2021/09/19 15:52:07;;;;;;;3.67;1.73;;;12.40;99.90;;;;;;6205886;23;20724;-96
2021/09/19 15:54:40;;;;;;;3.27;1.80;;;12.40;99.90;;;;;;6208554;23;20180;-95
2021/09/19 15:57:12;;;;;;;3.00;2.00;;;12.50;99.90;;;;;;6207270;23;20181;-96
2021/09/19 15:59:44;;;;;;;2.77;1.70;;;12.50;99.90;;;;;;6199826;23;20204;-91
2021/09/19 16:05:13;;;;;;;13.90;7.60;;;12.50;99.90;;;;;;6197413;23;20173;-91
2021/09/19 16:07:44;;;;;;;4.93;1.30;;;12.60;99.90;;;;;;6188506;23;20177;-91
2021/09/19 16:10:19;;;;;;;5.23;2.43;;;12.70;99.90;;;;;;6198638;23;20177;-91
2021/09/19 16:15:40;;;;;;;5.97;3.00;;;12.90;99.90;;;;;;6223749;23;20184;-91